Time;durP1;ratioP1;P1;durP2;ratioP2;P2;SDS_P1;SDS_P2;PMS_P1;PMS_P2;Temp;Humidity;BMP_temperature;BMP_pressure;BME280_temperature;BME280_humidity;BME280_pressure;Samples;Min_cycle;Max_cycle;Signal;HPM_P1;HPM_P2
2022/02/12 00:00:59;;;;;;;12.50;4.35;;;;;;;3.19;78.02;100514.34;4831793;29;20081;-85
2022/02/12 00:03:25;;;;;;;7.22;2.90;;;;;;;3.32;78.13;100533.19;4843418;29;20400;-84
2022/02/12 00:05:51;;;;;;;15.68;2.53;;;;;;;3.34;78.23;100530.41;4852405;29;20037;-85
2022/02/12 00:08:16;;;;;;;10.80;3.15;;;;;;;3.20;78.10;100513.38;4850891;29;20057;-85
2022/02/12 00:10:41;;;;;;;5.25;2.92;;;;;;;3.24;78.56;100508.59;4852181;29;20029;-84
2022/02/12 00:13:11;;;;;;;7.88;3.95;;;;;;;3.27;77.92;100511.75;4831983;29;20343;-84
2022/02/12 00:15:37;;;;;;;7.10;2.67;;;;;;;3.17;78.14;100524.22;4815065;29;20030;-85
2022/02/12 00:18:03;;;;;;;8.25;4.40;;;;;;;3.22;77.86;100526.41;4831119;29;20407;-83
2022/02/12 00:20:28;;;;;;;6.93;3.00;;;;;;;3.13;78.34;100520.25;4854184;29;20089;-83
2022/02/12 00:22:54;;;;;;;10.32;3.80;;;;;;;3.14;78.18;100519.28;4836097;29;20124;-83
2022/02/12 00:25:19;;;;;;;11.50;3.20;;;;;;;3.15;78.04;100512.19;4872700;29;20026;-83
2022/02/12 00:27:44;;;;;;;12.60;3.63;;;;;;;3.17;78.16;100518.16;4843532;29;20089;-83
2022/02/12 00:30:10;;;;;;;11.48;3.80;;;;;;;3.13;77.93;100530.81;4843083;29;20519;-83
2022/02/12 00:32:35;;;;;;;6.35;2.75;;;;;;;2.94;77.82;100499.44;4859289;29;20037;-83
2022/02/12 00:35:02;;;;;;;10.90;2.90;;;;;;;2.91;77.55;100511.13;4844892;29;20033;-83
2022/02/12 00:37:29;;;;;;;6.95;3.42;;;;;;;3.15;77.58;100538.56;4856756;29;20375;-82
2022/02/12 00:39:55;;;;;;;10.63;2.90;;;;;;;3.10;77.41;100527.69;4859881;29;20117;-83
2022/02/12 00:42:22;;;;;;;7.00;3.53;;;;;;;3.01;77.81;100517.09;4861374;29;20481;-83
2022/02/12 00:44:47;;;;;;;6.60;2.55;;;;;;;3.04;77.70;100529.13;4862699;29;20442;-83
2022/02/12 00:47:13;;;;;;;11.10;2.85;;;;;;;2.99;78.13;100534.88;4865136;29;20037;-83
2022/02/12 00:49:38;;;;;;;9.27;2.97;;;;;;;3.00;77.63;100527.81;4835512;29;20057;-83
2022/02/12 00:52:04;;;;;;;14.73;3.15;;;;;;;2.97;77.65;100515.75;4840365;29;20072;-83
2022/02/12 00:54:29;;;;;;;3.85;2.75;;;;;;;3.01;77.75;100527.63;4846266;29;20068;-83
2022/02/12 00:56:54;;;;;;;11.40;3.05;;;;;;;3.04;78.11;100526.50;4841057;29;20040;-83
2022/02/12 00:59:19;;;;;;;12.93;3.88;;;;;;;2.78;77.64;100494.09;4844608;29;20033;-83
2022/02/12 01:01:45;;;;;;;9.38;3.65;;;;;;;2.93;77.39;100514.44;4858746;29;20124;-83
2022/02/12 01:04:10;;;;;;;6.78;2.88;;;;;;;2.79;77.53;100496.59;4857408;29;20101;-83
2022/02/12 01:06:36;;;;;;;6.15;3.88;;;;;;;2.97;77.67;100522.88;4844896;29;20029;-83
2022/02/12 01:09:02;;;;;;;7.72;3.25;;;;;;;2.77;77.90;100493.28;4846872;29;20497;-83
2022/02/12 01:11:28;;;;;;;8.98;3.15;;;;;;;2.92;77.99;100525.97;4862376;29;20128;-83
2022/02/12 01:13:53;;;;;;;12.85;3.50;;;;;;;2.89;77.99;100523.63;4840902;29;20034;-83
2022/02/12 01:16:19;;;;;;;8.00;4.00;;;;;;;2.93;78.00;100530.25;4845077;29;20043;-83
2022/02/12 01:18:44;;;;;;;19.25;3.97;;;;;;;2.88;77.63;100532.53;4831636;29;20025;-83
2022/02/12 01:21:09;;;;;;;9.60;3.50;;;;;;;2.87;77.87;100530.06;4860264;29;20565;-83
2022/02/12 01:23:35;;;;;;;9.10;3.58;;;;;;;2.66;77.83;100496.19;4839925;29;20510;-83
2022/02/12 01:26:01;;;;;;;8.25;2.97;;;;;;;2.85;77.91;100524.94;4845633;29;20341;-83
2022/02/12 01:28:27;;;;;;;7.38;3.03;;;;;;;2.87;77.73;100516.88;4848554;29;20064;-83
2022/02/12 01:30:52;;;;;;;9.30;3.10;;;;;;;2.74;77.17;100487.47;4852748;29;20041;-83
2022/02/12 01:33:17;;;;;;;7.72;3.90;;;;;;;2.94;77.21;100521.38;4828716;29;20435;-83
2022/02/12 01:35:43;;;;;;;7.22;3.75;;;;;;;2.86;77.54;100507.31;4847694;29;20037;-83
2022/02/12 01:38:08;;;;;;;10.38;4.13;;;;;;;2.82;77.29;100504.16;4846366;29;20043;-83
2022/02/12 01:40:34;;;;;;;9.60;2.97;;;;;;;2.81;77.54;100517.50;4849897;29;20026;-83
2022/02/12 01:43:03;;;;;;;12.80;4.05;;;;;;;2.87;77.62;100515.06;4848566;29;20034;-83
2022/02/12 01:45:29;;;;;;;10.32;3.60;;;;;;;2.90;76.78;100516.56;4848869;29;20089;-85
2022/02/12 01:47:55;;;;;;;10.55;3.78;;;;;;;2.85;77.37;100517.03;4845528;29;20073;-85
2022/02/12 01:50:20;;;;;;;7.00;3.47;;;;;;;2.83;77.13;100497.91;4832874;29;20038;-85
2022/02/12 01:52:47;;;;;;;7.88;2.95;;;;;;;2.78;77.07;100494.91;4863112;29;20061;-85
2022/02/12 01:55:12;;;;;;;7.47;3.40;;;;;;;2.76;77.46;100499.53;4862109;29;20049;-85
2022/02/12 01:57:38;;;;;;;8.00;2.80;;;;;;;2.69;77.49;100489.75;4832226;29;20042;-85
2022/02/12 02:00:06;;;;;;;11.00;3.40;;;;;;;2.77;77.10;100509.09;4831362;29;20494;-85
2022/02/12 02:02:31;;;;;;;7.35;3.08;;;;;;;2.79;77.23;100504.50;4848227;29;20133;-85
2022/02/12 02:04:57;;;;;;;12.13;3.72;;;;;;;2.63;77.43;100491.22;4848477;29;20057;-85
2022/02/12 02:07:23;;;;;;;11.10;4.07;;;;;;;2.58;77.39;100475.03;4827755;29;20042;-85
2022/02/12 02:09:50;;;;;;;6.85;3.03;;;;;;;2.69;76.98;100490.59;4859242;29;20036;-86
2022/02/12 02:12:15;;;;;;;10.88;3.97;;;;;;;2.65;77.05;100477.88;4832025;29;20111;-85
2022/02/12 02:14:41;;;;;;;9.20;3.33;;;;;;;2.67;77.02;100491.72;4847332;29;20045;-86
2022/02/12 02:17:10;;;;;;;8.48;2.92;;;;;;;2.55;77.02;100470.09;4833508;29;20041;-86
2022/02/12 02:19:36;;;;;;;12.93;4.90;;;;;;;2.60;76.80;100486.25;4841904;29;20161;-86
2022/02/12 02:22:03;;;;;;;11.02;4.00;;;;;;;2.64;77.41;100495.53;4831406;29;20030;-86
2022/02/12 02:24:29;;;;;;;12.90;3.55;;;;;;;2.65;76.92;100491.88;4856815;29;20025;-83
2022/02/12 02:27:14;;;;;;;7.63;3.22;;;;;;;2.57;76.92;100494.50;4856198;29;20108;-84
2022/02/12 02:29:41;;;;;;;10.27;3.22;;;;;;;2.55;76.80;100488.56;4858069;29;20029;-84
2022/02/12 02:32:08;;;;;;;6.07;3.70;;;;;;;2.56;77.05;100492.00;4874059;29;20080;-84
2022/02/12 02:34:33;;;;;;;5.40;3.00;;;;;;;2.48;76.69;100482.25;4857245;29;20036;-84
2022/02/12 02:36:58;;;;;;;6.65;3.00;;;;;;;2.41;77.09;100478.59;4856805;29;20586;-83
2022/02/12 02:39:24;;;;;;;11.60;4.03;;;;;;;2.46;76.95;100489.50;4825074;29;20041;-83
2022/02/12 02:41:49;;;;;;;10.73;3.58;;;;;;;2.45;77.08;100489.63;4841891;29;20074;-83
2022/02/12 02:44:15;;;;;;;8.50;3.30;;;;;;;2.48;77.17;100495.44;4856707;29;20048;-83
2022/02/12 02:46:40;;;;;;;10.10;4.03;;;;;;;2.44;76.63;100475.66;4829831;29;20116;-84
2022/02/12 02:49:05;;;;;;;8.23;3.15;;;;;;;2.40;76.58;100484.84;4847661;29;20127;-84
2022/02/12 02:56:59;;;;;;;8.13;3.65;;;;;;;2.32;77.14;100486.59;4858755;29;20469;-83
2022/02/12 02:59:24;;;;;;;9.43;3.47;;;;;;;2.36;76.91;100488.75;4835943;29;20034;-83
2022/02/12 03:01:52;;;;;;;10.00;3.70;;;;;;;2.36;76.69;100491.38;4836823;29;20037;-83
2022/02/12 03:04:18;;;;;;;6.75;3.38;;;;;;;2.28;76.65;100480.81;4849116;29;20041;-83
2022/02/12 03:06:44;;;;;;;5.50;3.05;;;;;;;2.31;76.67;100488.41;4850965;29;20034;-83
2022/02/12 03:09:09;;;;;;;7.57;3.40;;;;;;;2.33;76.65;100486.44;4845952;29;20049;-83
2022/02/12 03:11:34;;;;;;;5.95;3.25;;;;;;;2.12;76.56;100454.34;4848209;29;20037;-84
2022/02/12 03:13:59;;;;;;;10.48;3.30;;;;;;;2.20;76.51;100468.44;4834209;29;20056;-83
2022/02/12 03:16:25;;;;;;;9.98;3.65;;;;;;;2.14;76.81;100455.06;4836004;29;20037;-83
2022/02/12 03:18:51;;;;;;;7.95;3.38;;;;;;;2.24;76.50;100472.41;4833039;29;20029;-83
2022/02/12 03:21:17;;;;;;;9.55;3.22;;;;;;;2.25;77.00;100471.41;4861533;29;20029;-83
2022/02/12 03:23:43;;;;;;;4.93;3.15;;;;;;;2.25;76.74;100468.78;4844764;29;20103;-84
2022/02/12 03:26:08;;;;;;;6.10;3.00;;;;;;;2.27;76.72;100463.38;4859390;29;20471;-83
2022/02/12 03:28:34;;;;;;;7.15;3.50;;;;;;;2.29;76.96;100467.47;4835304;29;20129;-84
2022/02/12 03:30:59;;;;;;;7.63;3.13;;;;;;;2.21;77.07;100467.44;4850280;29;20109;-83
2022/02/12 03:33:25;;;;;;;7.65;3.50;;;;;;;2.25;76.79;100468.78;4834887;29;20058;-83
2022/02/12 03:35:51;;;;;;;5.30;4.05;;;;;;;2.25;76.71;100470.56;4844102;29;20034;-83
2022/02/12 03:38:20;;;;;;;11.52;3.60;;;;;;;2.24;76.46;100458.41;4843656;29;20048;-83
2022/02/12 03:40:48;;;;;;;8.80;3.83;;;;;;;2.14;76.68;100460.31;4835520;29;20443;-83
2022/02/12 03:43:14;;;;;;;7.45;3.30;;;;;;;2.13;76.71;100458.66;4826473;29;20212;-83
2022/02/12 03:45:41;;;;;;;7.03;3.33;;;;;;;2.06;76.82;100450.56;4843955;29;20022;-83
2022/02/12 03:48:07;;;;;;;8.30;3.22;;;;;;;1.93;76.47;100431.69;4840569;29;20182;-83
2022/02/12 03:50:34;;;;;;;11.68;3.95;;;;;;;2.15;76.59;100478.59;4860024;29;20049;-83
2022/02/12 03:53:00;;;;;;;10.02;3.10;;;;;;;2.15;76.54;100475.13;4848097;29;20096;-83
2022/02/12 03:55:27;;;;;;;6.78;4.00;;;;;;;2.16;76.36;100467.06;4826068;29;20435;-83
2022/02/12 03:57:52;;;;;;;9.65;3.80;;;;;;;2.13;76.00;100467.41;4856404;29;20033;-83
2022/02/12 04:00:18;;;;;;;14.13;4.28;;;;;;;2.13;76.74;100470.03;4857990;29;20052;-83
2022/02/12 04:02:44;;;;;;;7.63;3.42;;;;;;;2.05;76.37;100453.34;4859947;29;20498;-83
2022/02/12 04:05:11;;;;;;;9.77;2.97;;;;;;;2.17;76.80;100466.09;4858884;29;20648;-83
2022/02/12 04:07:39;;;;;;;9.95;3.22;;;;;;;1.93;76.15;100426.44;4858504;29;20041;-83
2022/02/12 04:10:06;;;;;;;7.15;3.17;;;;;;;2.18;76.63;100464.28;4868021;29;20029;-83
2022/02/12 04:12:32;;;;;;;5.35;3.42;;;;;;;2.03;77.11;100464.00;4860529;29;20047;-83
2022/02/12 04:14:57;;;;;;;5.80;3.47;;;;;;;2.07;76.72;100454.84;4857761;29;20128;-83
2022/02/12 04:17:24;;;;;;;4.97;2.65;;;;;;;2.13;76.52;100463.94;4858282;29;20037;-83
2022/02/12 04:19:50;;;;;;;8.18;3.55;;;;;;;2.14;76.73;100455.06;4858629;29;20030;-83
2022/02/12 04:22:15;;;;;;;6.28;4.20;;;;;;;2.15;76.76;100460.16;4853097;29;20038;-82
2022/02/12 04:24:40;;;;;;;6.57;3.30;;;;;;;2.05;76.82;100433.09;4832005;29;20048;-83
2022/02/12 04:27:06;;;;;;;10.05;4.03;;;;;;;2.16;76.66;100453.09;4830027;29;20042;-83
2022/02/12 04:29:32;;;;;;;9.25;3.65;;;;;;;2.17;77.24;100441.56;4847351;29;20536;-83
2022/02/12 04:31:57;;;;;;;11.48;3.53;;;;;;;2.18;76.84;100440.59;4831240;29;20034;-83
2022/02/12 04:34:23;;;;;;;6.43;3.28;;;;;;;2.15;76.88;100439.09;4856483;29;20129;-83
2022/02/12 04:36:50;;;;;;;8.82;3.45;;;;;;;2.19;77.15;100450.13;4846256;29;20045;-83
2022/02/12 04:39:15;;;;;;;8.48;3.65;;;;;;;2.21;76.90;100448.16;4810307;29;20078;-83
2022/02/12 04:41:41;;;;;;;8.50;3.67;;;;;;;2.21;77.01;100448.16;4847203;29;20383;-83
2022/02/12 04:44:06;;;;;;;11.23;3.40;;;;;;;2.21;76.99;100445.53;4832403;29;20037;-83
2022/02/12 04:46:32;;;;;;;10.80;3.58;;;;;;;2.18;76.89;100449.28;4844630;29;20037;-83
2022/02/12 04:48:57;;;;;;;8.60;3.72;;;;;;;2.13;77.02;100433.16;4849690;29;20044;-83
2022/02/12 04:51:22;;;;;;;8.18;3.30;;;;;;;1.99;76.58;100417.91;4847235;29;20102;-83
2022/02/12 04:53:49;;;;;;;13.80;3.78;;;;;;;2.08;76.35;100439.84;4839582;29;20056;-82
2022/02/12 04:56:16;;;;;;;12.82;3.75;;;;;;;2.03;76.44;100423.72;4845473;29;20046;-82
2022/02/12 04:58:41;;;;;;;14.40;4.20;;;;;;;2.08;76.46;100439.84;4847615;29;20056;-82
2022/02/12 05:01:06;;;;;;;8.40;3.45;;;;;;;2.04;76.73;100436.72;4829541;29;20193;-82
2022/02/12 05:03:32;;;;;;;8.95;3.40;;;;;;;2.02;76.17;100424.69;4860447;29;20068;-82
2022/02/12 05:05:57;;;;;;;8.40;3.88;;;;;;;1.96;76.25;100425.31;4843721;29;20037;-82
2022/02/12 05:08:22;;;;;;;12.45;4.25;;;;;;;2.02;76.26;100425.50;4832460;29;20490;-82
2022/02/12 05:10:49;;;;;;;8.13;3.40;;;;;;;1.94;76.37;100417.56;4847793;29;20104;-82
2022/02/12 05:13:14;;;;;;;15.93;4.55;;;;;;;1.96;76.01;100409.50;4844228;29;20482;-82
2022/02/12 05:15:40;;;;;;;13.98;3.97;;;;;;;1.95;76.50;100421.84;4848748;29;20561;-83
2022/02/12 05:18:05;;;;;;;9.35;3.97;;;;;;;1.92;75.69;100426.59;4842494;29;20105;-82
2022/02/12 05:20:31;;;;;;;7.63;3.47;;;;;;;1.87;76.13;100406.00;4825979;29;20481;-82
2022/02/12 05:22:57;;;;;;;6.68;3.45;;;;;;;1.95;75.69;100426.28;4844821;29;20041;-82
2022/02/12 05:25:22;;;;;;;7.22;3.75;;;;;;;1.91;76.08;100420.50;4828762;29;20066;-82
2022/02/12 05:27:47;;;;;;;10.52;3.35;;;;;;;1.76;75.72;100395.72;4846550;29;20033;-82
2022/02/12 05:30:13;;;;;;;9.90;4.22;;;;;;;1.58;76.11;100371.25;4828643;29;20577;-82
2022/02/12 05:32:38;;;;;;;7.78;3.42;;;;;;;1.81;76.17;100417.16;4855148;29;20124;-82
2022/02/12 05:35:04;;;;;;;6.93;3.40;;;;;;;1.76;75.86;100411.50;4834757;29;20067;-82
2022/02/12 05:37:29;;;;;;;7.50;3.65;;;;;;;1.64;75.82;100390.88;4847773;29;20033;-83
2022/02/12 05:39:55;;;;;;;5.55;3.08;;;;;;;1.76;75.46;100406.25;4832001;29;20182;-82
2022/02/12 05:42:20;;;;;;;9.60;4.03;;;;;;;1.64;75.90;100394.31;4850435;29;20120;-83
2022/02/12 05:44:45;;;;;;;7.28;3.55;;;;;;;1.68;75.76;100387.78;4814622;29;20056;-83
2022/02/12 05:47:10;;;;;;;5.22;3.45;;;;;;;1.64;75.67;100380.34;4848756;29;20095;-82
2022/02/12 05:49:37;;;;;;;8.40;3.33;;;;;;;1.67;75.57;100385.28;4840403;29;20034;-82
2022/02/12 05:52:02;;;;;;;7.35;3.55;;;;;;;1.66;75.91;100389.72;4836520;29;20100;-82
2022/02/12 05:54:28;;;;;;;7.90;3.80;;;;;;;1.57;75.88;100376.66;4845496;29;20049;-83
2022/02/12 05:56:53;;;;;;;8.73;3.63;;;;;;;1.63;75.85;100384.78;4832033;29;20406;-82
2022/02/12 05:59:19;;;;;;;5.22;3.03;;;;;;;1.45;75.82;100363.75;4832330;29;20490;-83
2022/02/12 06:01:44;;;;;;;10.93;3.42;;;;;;;1.59;75.80;100382.59;4846196;29;20120;-82
2022/02/12 06:04:10;;;;;;;10.68;3.72;;;;;;;1.62;75.68;100383.09;4850377;29;20117;-82
2022/02/12 06:06:36;;;;;;;9.27;3.95;;;;;;;1.66;75.48;100391.53;4835027;29;20038;-82
2022/02/12 06:09:01;;;;;;;16.20;3.65;;;;;;;1.52;75.59;100377.97;4846039;29;20123;-82
2022/02/12 06:11:27;;;;;;;6.18;3.20;;;;;;;1.58;75.62;100394.09;4848034;29;20557;-83
2022/02/12 06:13:52;;;;;;;7.95;3.22;;;;;;;1.56;75.43;100390.78;4827292;29;20351;-82
2022/02/12 06:16:19;;;;;;;8.40;3.65;;;;;;;1.47;75.63;100382.84;4852819;29;20045;-83
2022/02/12 06:18:45;;;;;;;9.85;3.60;;;;;;;1.47;75.76;100396.00;4842870;29;20045;-82
2022/02/12 06:21:10;;;;;;;8.63;3.65;;;;;;;1.48;75.58;100405.56;4847758;29;20074;-83
2022/02/12 06:23:37;;;;;;;8.90;3.47;;;;;;;1.39;75.80;100390.69;4863201;29;20065;-83
2022/02/12 06:26:04;;;;;;;4.50;3.28;;;;;;;1.50;75.98;100400.97;4853554;29;20049;-82
2022/02/12 06:28:29;;;;;;;8.98;3.20;;;;;;;1.46;75.31;100394.34;4852225;29;20443;-82
2022/02/12 06:30:55;;;;;;;8.15;2.97;;;;;;;1.40;75.20;100387.06;4842070;29;20045;-83
2022/02/12 06:33:21;;;;;;;5.00;3.67;;;;;;;1.43;75.78;100386.75;4844186;29;20033;-83
2022/02/12 06:35:46;;;;;;;6.07;3.67;;;;;;;1.46;75.16;100380.38;4850734;29;20307;-82
2022/02/12 06:38:12;;;;;;;6.43;2.90;;;;;;;1.45;75.40;100384.81;4832558;29;20045;-82
2022/02/12 06:40:37;;;;;;;11.80;3.28;;;;;;;1.42;75.65;100379.84;4852070;29;20041;-82
2022/02/12 06:43:03;;;;;;;7.50;3.25;;;;;;;1.47;75.25;100392.53;4846561;29;20030;-82
2022/02/12 06:45:30;;;;;;;10.85;3.38;;;;;;;1.40;75.30;100378.34;4846869;29;20041;-83
2022/02/12 06:47:55;;;;;;;6.38;2.92;;;;;;;1.31;75.49;100361.66;4849916;29;20034;-82
2022/02/12 06:50:21;;;;;;;4.97;2.58;;;;;;;1.39;75.27;100382.78;4832668;29;20202;-83
2022/02/12 06:52:46;;;;;;;4.68;2.67;;;;;;;1.37;75.21;100386.53;4845410;29;20045;-83
2022/02/12 06:55:11;;;;;;;9.32;3.20;;;;;;;1.38;75.64;100385.56;4857154;29;20117;-83
2022/02/12 06:57:37;;;;;;;10.48;3.70;;;;;;;1.35;74.98;100381.44;4826403;29;20057;-82
2022/02/12 07:00:03;;;;;;;6.63;3.10;;;;;;;1.37;75.33;100383.91;4857371;29;20057;-83
2022/02/12 07:02:29;;;;;;;9.48;3.45;;;;;;;1.31;74.88;100387.16;4860769;29;20561;-82
2022/02/12 07:04:55;;;;;;;9.73;3.60;;;;;;;1.29;75.09;100382.03;4862055;29;20025;-83
2022/02/12 07:07:20;;;;;;;7.00;2.85;;;;;;;1.25;75.26;100375.44;4864089;29;20042;-83
2022/02/12 07:09:46;;;;;;;8.07;3.40;;;;;;;1.29;75.25;100368.88;4845434;29;20541;-83
2022/02/12 07:12:11;;;;;;;7.82;3.20;;;;;;;1.35;75.30;100377.97;4858127;29;20041;-83
2022/02/12 07:14:36;;;;;;;7.72;3.35;;;;;;;1.24;75.49;100363.28;4860279;29;20052;-83
2022/02/12 07:17:03;;;;;;;11.23;4.10;;;;;;;1.34;74.86;100385.03;4850841;29;20061;-83
2022/02/12 07:19:28;;;;;;;5.15;2.70;;;;;;;1.41;75.17;100391.34;4878375;29;20056;-83
2022/02/12 07:21:53;;;;;;;8.55;3.80;;;;;;;1.24;75.56;100371.16;4860070;29;20037;-83
2022/02/12 07:24:19;;;;;;;9.70;2.70;;;;;;;1.43;75.04;100380.66;4869989;29;20038;-83
2022/02/12 07:26:45;;;;;;;7.72;2.67;;;;;;;1.41;75.53;100386.09;4859615;29;20481;-83
2022/02/12 07:29:11;;;;;;;3.67;2.72;;;;;;;1.37;75.27;100389.19;4837052;29;20041;-83
2022/02/12 07:31:36;;;;;;;7.63;3.22;;;;;;;1.16;75.11;100344.78;4848370;29;20398;-83
2022/02/12 07:34:02;;;;;;;9.98;3.25;;;;;;;1.39;75.03;100374.91;4832035;29;20025;-83
2022/02/12 07:36:27;;;;;;;9.63;2.97;;;;;;;1.38;75.13;100370.59;4865149;29;20041;-82
2022/02/12 07:38:52;;;;;;;10.00;2.78;;;;;;;1.40;75.28;100370.44;4845677;29;20045;-83
2022/02/12 07:41:18;;;;;;;7.47;3.25;;;;;;;1.38;75.65;100375.03;4835254;29;20684;-83
2022/02/12 07:43:44;;;;;;;8.75;3.42;;;;;;;1.42;75.63;100373.78;4837562;29;20124;-83
2022/02/12 07:46:10;;;;;;;6.68;3.30;;;;;;;1.39;75.55;100371.44;4836246;29;20057;-83
2022/02/12 07:48:37;;;;;;;8.70;2.95;;;;;;;1.32;75.58;100375.66;4835550;29;20446;-83
2022/02/12 07:51:02;;;;;;;12.25;3.20;;;;;;;1.35;75.99;100370.09;4834124;29;20041;-83
2022/02/12 07:53:28;;;;;;;9.95;3.75;;;;;;;1.47;75.31;100385.47;4846508;29;20097;-82
2022/02/12 07:55:53;;;;;;;9.80;3.03;;;;;;;1.45;75.96;100381.34;4845807;29;20044;-82
2022/02/12 07:58:20;;;;;;;15.20;4.53;;;;;;;1.34;76.10;100373.69;4834007;29;20041;-83
2022/02/12 08:00:46;;;;;;;11.48;4.05;;;;;;;1.35;77.03;100386.72;4833965;29;20041;-83
2022/02/12 08:03:12;;;;;;;9.50;3.95;;;;;;;1.40;76.87;100388.84;4855038;29;20029;-83
2022/02/12 08:05:37;;;;;;;10.68;4.72;;;;;;;1.41;76.64;100388.72;4858124;29;20048;-83
2022/02/12 08:08:03;;;;;;;12.13;3.70;;;;;;;1.41;76.51;100388.72;4839437;29;20044;-83
2022/02/12 08:13:30;;;;;;;6.25;3.17;;;;;;;1.41;76.64;100380.84;4859621;29;20417;-83
2022/02/12 08:15:55;;;;;;;11.77;3.97;;;;;;;1.42;76.49;100387.72;4859258;29;20042;-83
2022/02/12 08:18:21;;;;;;;13.60;3.50;;;;;;;1.44;77.03;100385.78;4842333;29;20319;-83
2022/02/12 08:20:46;;;;;;;9.05;4.03;;;;;;;1.46;77.00;100378.53;4859663;29;20397;-83
2022/02/12 08:23:11;;;;;;;7.28;3.80;;;;;;;1.46;76.79;100375.91;4856888;29;20478;-83
2022/02/12 08:25:37;;;;;;;10.02;4.18;;;;;;;1.58;77.20;100386.19;4857730;29;20117;-83
2022/02/12 08:28:02;;;;;;;8.02;4.22;;;;;;;1.57;76.96;100379.31;4856882;29;20486;-83
2022/02/12 08:30:28;;;;;;;9.57;4.18;;;;;;;1.52;76.88;100374.50;4857755;29;20049;-83
2022/02/12 08:32:53;;;;;;;6.05;3.83;;;;;;;1.55;77.51;100376.00;4874229;29;20040;-84
2022/02/12 08:35:18;;;;;;;8.73;3.90;;;;;;;1.45;76.73;100355.88;4863292;29;20409;-83
2022/02/12 08:37:45;;;;;;;7.68;3.67;;;;;;;1.63;77.52;100383.94;4860169;29;20029;-83
2022/02/12 08:40:14;;;;;;;16.17;4.60;;;;;;;1.45;77.20;100339.25;4858613;29;20041;-83
2022/02/12 08:42:41;;;;;;;12.18;4.35;;;;;;;1.66;77.10;100379.19;4844242;29;20037;-82
2022/02/12 08:45:07;;;;;;;10.38;4.18;;;;;;;1.57;77.26;100356.47;4841820;29;20316;-82
2022/02/12 08:47:33;;;;;;;12.05;3.78;;;;;;;1.60;77.08;100352.66;4858723;29;20033;-83
2022/02/12 08:49:58;;;;;;;6.53;3.72;;;;;;;1.70;77.30;100363.94;4859808;29;20052;-83
2022/02/12 08:52:24;;;;;;;11.73;4.22;;;;;;;1.69;77.44;100352.56;4856952;29;20036;-83
2022/02/12 08:54:50;;;;;;;10.00;3.63;;;;;;;1.79;77.40;100360.38;4858383;29;20038;-83
2022/02/12 08:57:15;;;;;;;10.88;4.45;;;;;;;1.79;77.59;100363.00;4842646;29;20050;-82
2022/02/12 08:59:40;;;;;;;26.73;7.25;;;;;;;1.79;77.58;100358.56;4861439;29;20501;-83
2022/02/12 09:02:06;;;;;;;26.02;6.47;;;;;;;1.74;77.77;100342.41;4841004;29;20204;-82
2022/02/12 09:04:31;;;;;;;14.63;5.68;;;;;;;1.89;77.92;100363.72;4856465;29;20459;-82
2022/02/12 09:06:56;;;;;;;13.82;4.82;;;;;;;1.92;77.88;100352.88;4858109;29;20479;-82
2022/02/12 09:09:23;;;;;;;20.73;5.88;;;;;;;1.91;77.67;100351.22;4859727;29;20661;-82
2022/02/12 09:11:49;;;;;;;14.38;4.47;;;;;;;1.84;77.49;100339.66;4856951;29;20085;-82
2022/02/12 09:14:14;;;;;;;8.70;3.55;;;;;;;1.93;77.67;100352.72;4857443;29;20025;-83
2022/02/12 09:16:40;;;;;;;12.55;5.32;;;;;;;1.96;77.64;100354.22;4842339;29;20208;-82
2022/02/12 09:19:07;;;;;;;11.95;4.97;;;;;;;1.96;77.82;100359.50;4856585;29;20383;-83
2022/02/12 09:21:33;;;;;;;14.70;4.93;;;;;;;1.99;77.48;100361.78;4855728;29;20065;-83
2022/02/12 09:23:59;;;;;;;10.75;4.45;;;;;;;1.91;77.63;100352.06;4835929;29;20041;-83
2022/02/12 09:26:44;;;;;;;9.55;4.38;;;;;;;2.01;77.67;100358.03;4835509;29;20030;-83
2022/02/12 09:29:09;;;;;;;14.05;5.75;;;;;;;2.01;77.69;100344.06;4838628;29;20033;-82
2022/02/12 09:31:35;;;;;;;14.32;4.85;;;;;;;1.99;77.58;100338.09;4870273;29;20036;-82
2022/02/12 09:34:11;;;;;;;;;;;;;;;;;;;;;
2022/02/12 09:36:48;;;;;;;9.77;5.38;;;;;;;1.94;77.98;100329.84;4839959;29;20065;-80
2022/02/12 09:39:18;;;;;;;13.48;5.57;;;;;;;1.95;77.61;100334.13;4857694;29;20044;-80
2022/02/12 09:41:53;;;;;;;16.13;5.15;;;;;;;2.00;77.89;100347.66;4854294;29;20036;-81
2022/02/12 09:44:24;;;;;;;10.10;4.68;;;;;;;2.09;77.97;100350.19;4852549;29;20104;-81
2022/02/12 09:47:11;;;;;;;13.88;4.50;;;;;;;1.94;77.51;100324.59;4867558;29;20035;-81
2022/02/12 09:49:57;;;;;;;19.88;5.20;;;;;;;2.00;77.88;100343.22;4860180;29;20440;-81
2022/02/12 09:52:57;;;;;;;16.23;5.28;;;;;;;1.72;77.84;100283.03;4881300;29;20557;-81
2022/02/12 09:55:35;;;;;;;14.43;5.13;;;;;;;1.70;77.77;100271.84;4854246;29;20037;-81
2022/02/12 09:58:03;;;;;;;13.27;5.18;;;;;;;1.64;77.99;100267.19;4857894;29;20124;-81
2022/02/12 10:01:07;;;;;;;;;;;;;;;;;;;;;
2022/02/12 10:03:52;;;;;;;12.88;4.82;;;;;;;1.90;77.18;100275.88;4861152;29;20482;-81
2022/02/12 10:06:47;;;;;;;11.13;4.13;;;;;;;1.78;77.53;100248.16;4869705;29;20041;-81
2022/02/12 10:09:21;;;;;;;14.10;4.78;;;;;;;1.98;77.25;100289.91;4854199;29;20037;-82
2022/02/12 10:11:55;;;;;;;13.95;4.50;;;;;;;1.84;77.24;100255.44;4856643;29;20039;-82
2022/02/12 10:14:55;;;;;;;11.15;5.10;;;;;;;1.88;77.04;100243.63;4867670;29;20041;-82
2022/02/12 10:17:33;;;;;;;8.48;3.88;;;;;;;2.02;77.42;100264.91;4866864;29;20033;-81
2022/02/12 10:19:59;;;;;;;11.48;4.05;;;;;;;1.90;77.04;100233.75;4841047;29;20046;-82
2022/02/12 10:22:26;;;;;;;11.32;3.78;;;;;;;2.09;77.10;100265.91;4852740;29;21419;-82
2022/02/12 10:25:03;;;;;;;11.77;3.63;;;;;;;2.24;77.53;100292.47;4868158;29;20029;-82
2022/02/12 10:27:40;;;;;;;9.75;3.88;;;;;;;2.08;77.61;100250.25;4856265;29;20081;-82
2022/02/12 10:30:11;;;;;;;9.95;4.13;;;;;;;2.19;77.44;100268.41;4857414;29;20665;-82
2022/02/12 10:32:46;;;;;;;;;;;;;;;;;;;;;
2022/02/12 10:35:20;;;;;;;6.07;3.80;;;;;;;1.99;77.28;100227.50;4853939;29;20046;-82
2022/02/12 10:37:48;;;;;;;13.75;6.10;;;;;;;2.07;77.40;100230.19;4857952;29;20565;-82
2022/02/12 10:40:22;;;;;;;16.25;4.47;;;;;;;2.04;77.08;100210.28;4859738;29;20044;-83
2022/02/12 10:42:51;;;;;;;42.80;8.93;;;;;;;2.22;76.65;100249.66;4869665;29;20117;-82
2022/02/12 10:45:25;;;;;;;20.13;5.68;;;;;;;2.13;76.77;100240.06;4854921;29;20033;-82
2022/02/12 10:47:54;;;;;;;19.20;5.30;;;;;;;2.11;76.20;100231.53;4855822;29;20030;-82
2022/02/12 10:50:23;;;;;;;12.70;3.97;;;;;;;2.16;76.73;100235.31;4869867;29;20035;-82
2022/02/12 10:52:59;;;;;;;17.25;3.70;;;;;;;2.17;77.39;100220.34;4853781;29;20040;-82
2022/02/12 10:55:34;;;;;;;10.43;3.13;;;;;;;2.02;77.85;100195.63;4858651;29;20044;-82
2022/02/12 10:58:08;;;;;;;12.25;3.85;;;;;;;2.03;78.01;100187.53;4871301;29;20200;-82
2022/02/12 11:00:55;;;;;;;5.65;2.88;;;;;;;2.42;77.83;100237.84;4876481;29;20108;-82
2022/02/12 11:03:25;;;;;;;9.18;3.67;;;;;;;2.02;78.64;100172.75;4856098;29;20128;-82
2022/02/12 11:06:06;;;;;;;9.38;3.15;;;;;;;2.00;78.41;100160.72;4862034;29;20049;-82
2022/02/12 11:08:49;;;;;;;6.57;3.10;;;;;;;2.15;78.74;100181.00;4860144;29;20093;-82
2022/02/12 11:11:18;;;;;;;9.40;3.15;;;;;;;2.28;79.15;100193.69;4863136;29;20080;-82
2022/02/12 11:13:52;;;;;;;4.65;2.85;;;;;;;2.15;79.37;100164.38;4870617;29;20461;-82
2022/02/12 11:16:28;;;;;;;;;;;;;;;;;;;;;
2022/02/12 11:18:56;;;;;;;;;;;;;;;2.50;79.54;100205.41;4859757;29;20043;-82
2022/02/12 11:21:27;;;;;;;8.45;2.50;;;;;;;2.08;79.82;100139.66;4862304;29;19923;-82
2022/02/12 11:24:24;;;;;;;4.82;2.72;;;;;;;2.35;79.96;100181.53;4862815;29;20045;-82
2022/02/12 11:27:04;;;;;;;7.22;3.53;;;;;;;2.24;79.86;100150.22;4860812;29;20113;-81
2022/02/12 11:29:30;;;;;;;7.28;3.13;;;;;;;2.57;80.27;100201.13;4862863;29;20039;-82
2022/02/12 11:32:15;;;;;;;11.80;4.00;;;;;;;2.27;80.37;100144.66;4864945;29;20041;-83
2022/02/12 11:35:09;;;;;;;;;;;;;;;;;;;;;
2022/02/12 11:37:49;;;;;;;;;;;;;;;;;;;;;
2022/02/12 11:40:36;;;;;;;;;;;;;;;;;;;;;
2022/02/12 11:43:21;;;;;;;;;;;;;;;;;;;;;
2022/02/12 11:45:47;;;;;;;7.57;3.03;;;;;;;2.28;81.24;100120.78;4863290;29;20017;-83
2022/02/12 11:48:35;;;;;;;11.05;2.70;;;;;;;2.65;81.24;100161.59;4859827;29;20546;-83
2022/02/12 11:51:02;;;;;;;9.68;3.08;;;;;;;2.56;81.43;100137.06;4847405;29;20064;-83
2022/02/12 11:53:33;;;;;;;6.30;2.85;;;;;;;2.74;81.47;100148.25;4872793;29;20032;-83